Time;durP1;ratioP1;P1;durP2;ratioP2;P2;SDS_P1;SDS_P2;PMS_P1;PMS_P2;Temp;Humidity;BMP_temperature;BMP_pressure;BME280_temperature;BME280_humidity;BME280_pressure;Samples;Min_cycle;Max_cycle;Signal;HPM_P1;HPM_P2
2021/03/13 00:00:49;;;;;;;80.75;54.53;;;256.70;1971.20;;;;;;4916409;29;20060;-67
2021/03/13 00:03:16;;;;;;;82.00;55.88;;;256.70;1971.20;;;;;;4916465;29;20016;-67
2021/03/13 00:05:43;;;;;;;84.28;56.75;;;256.50;1996.80;;;;;;4916139;29;20035;-67
2021/03/13 00:08:10;;;;;;;88.78;58.95;;;256.40;1996.80;;;;;;4916191;29;20375;-67
2021/03/13 00:10:37;;;;;;;89.15;59.35;;;256.30;2022.40;;;;;;4914958;29;20086;-67
2021/03/13 00:13:03;;;;;;;87.72;57.95;;;256.40;1996.80;;;;;;4915999;29;20388;-67
2021/03/13 00:15:30;;;;;;;84.68;56.65;;;256.50;1996.80;;;;;;4915964;29;20071;-68
2021/03/13 00:17:57;;;;;;;77.32;53.70;;;256.50;1996.80;;;;;;4916294;29;20032;-68
2021/03/13 00:20:25;;;;;;;81.85;52.65;;;256.50;2022.40;;;;;;4915904;29;20499;-68
2021/03/13 00:22:52;;;;;;;88.88;54.53;;;256.50;2022.40;;;;;;4916073;29;20032;-67
2021/03/13 00:25:19;;;;;;;84.22;54.83;;;256.50;2022.40;;;;;;4915848;29;20039;-67
2021/03/13 00:27:46;;;;;;;91.07;59.15;;;256.80;2022.40;;;;;;4916045;29;20023;-68
2021/03/13 00:30:31;;;;;;;87.28;59.65;;;281.60;1996.80;;;;;;4916319;29;20068;-68
2021/03/13 00:32:59;;;;;;;91.32;60.75;;;281.90;1945.60;;;;;;4915922;29;20175;-67
2021/03/13 00:35:27;;;;;;;82.80;55.40;;;281.90;1945.60;;;;;;4915865;29;20036;-67
2021/03/13 00:37:55;;;;;;;72.78;49.80;;;281.80;1945.60;;;;;;4915954;29;20039;-67
2021/03/13 00:40:23;;;;;;;84.95;57.15;;;281.70;1971.20;;;;;;4914490;29;20032;-68
2021/03/13 00:42:50;;;;;;;85.07;60.47;;;282.00;1971.20;;;;;;4914279;29;20076;-67
2021/03/13 00:45:19;;;;;;;95.95;65.35;;;282.00;1971.20;;;;;;4915897;29;20038;-67
2021/03/13 00:47:45;;;;;;;73.18;50.10;;;282.00;1971.20;;;;;;4915648;29;20020;-67
2021/03/13 00:50:13;;;;;;;66.55;44.70;;;282.00;1971.20;;;;;;4915785;29;20032;-67
2021/03/13 00:52:39;;;;;;;60.03;40.92;;;282.20;1945.60;;;;;;4915650;29;20042;-67
2021/03/13 00:55:07;;;;;;;69.20;44.75;;;282.20;1945.60;;;;;;4915566;29;20044;-67
2021/03/13 00:57:33;;;;;;;62.33;42.90;;;282.20;1945.60;;;;;;4915405;29;20028;-67
2021/03/13 00:59:59;;;;;;;55.40;38.10;;;282.20;1971.20;;;;;;4915691;29;20115;-67
2021/03/13 01:02:25;;;;;;;59.95;42.17;;;282.30;1945.60;;;;;;4915759;29;20481;-67
2021/03/13 01:04:51;;;;;;;58.55;40.67;;;282.50;1945.60;;;;;;4914221;29;20564;-67
2021/03/13 01:07:17;;;;;;;49.90;37.30;;;282.50;1945.60;;;;;;4915732;29;20146;-67
2021/03/13 01:09:43;;;;;;;52.63;36.25;;;282.20;1996.80;;;;;;4913864;29;20044;-67
2021/03/13 01:12:09;;;;;;;53.15;36.20;;;282.10;2022.40;;;;;;4915640;29;20095;-67
2021/03/13 01:14:35;;;;;;;51.28;34.83;;;282.00;2022.40;;;;;;4915390;29;20340;-67
2021/03/13 01:17:01;;;;;;;45.55;33.33;;;282.40;2022.40;;;;;;4915430;29;20074;-67
2021/03/13 01:19:26;;;;;;;50.55;36.40;;;282.30;2022.40;;;;;;4914347;29;20495;-67
2021/03/13 01:21:52;;;;;;;58.67;39.40;;;282.20;2022.40;;;;;;4915846;29;20024;-67
2021/03/13 01:24:18;;;;;;;49.88;34.15;;;282.20;2022.40;;;;;;4918804;29;20021;-67
2021/03/13 01:26:43;;;;;;;50.95;32.65;;;282.40;1996.80;;;;;;4918688;29;20361;-67
2021/03/13 01:29:09;;;;;;;46.40;33.63;;;282.30;2022.40;;;;;;4918744;29;20032;-67
2021/03/13 01:31:35;;;;;;;42.78;31.08;;;282.50;2022.40;;;;;;4917346;29;20037;-67
2021/03/13 01:34:01;;;;;;;42.75;30.50;;;282.50;2022.40;;;;;;4918472;29;20092;-67
2021/03/13 01:36:26;;;;;;;39.45;30.20;;;307.20;2048.00;;;;;;4918710;29;20123;-67
2021/03/13 01:38:52;;;;;;;40.22;30.25;;;307.30;2022.40;;;;;;4918742;29;20028;-67
2021/03/13 01:41:19;;;;;;;46.60;32.13;;;307.30;2022.40;;;;;;4918553;29;20382;-67
2021/03/13 01:43:45;;;;;;;61.78;39.35;;;307.20;2022.40;;;;;;4918447;29;20036;-67
2021/03/13 01:46:11;;;;;;;57.50;38.05;;;307.30;2022.40;;;;;;4918169;29;20032;-67
2021/03/13 01:48:41;;;;;;;87.32;52.70;;;307.30;2022.40;;;;;;4918281;29;20021;-67
2021/03/13 01:51:07;;;;;;;63.77;40.43;;;307.30;2022.40;;;;;;4916813;29;20376;-67
2021/03/13 01:53:33;;;;;;;66.95;46.38;;;307.30;2048.00;;;;;;4918253;29;20403;-68
2021/03/13 01:55:59;;;;;;;57.45;41.67;;;307.40;2022.40;;;;;;4917796;29;20036;-66
2021/03/13 01:58:25;;;;;;;60.97;42.10;;;307.30;2048.00;;;;;;4918244;29;20032;-68
2021/03/13 02:00:51;;;;;;;48.42;37.28;;;307.20;2073.60;;;;;;4918359;29;20032;-66
2021/03/13 02:03:17;;;;;;;42.15;30.10;;;307.20;2073.60;;;;;;4918037;29;20024;-67
2021/03/13 02:05:46;;;;;;;36.00;27.55;;;282.50;2048.00;;;;;;4918103;29;20028;-67
2021/03/13 02:08:26;;;;;;;33.03;24.15;;;307.20;2073.60;;;;;;4917857;29;20024;-67
2021/03/13 02:11:18;;;;;;;36.47;25.95;;;307.30;2073.60;;;;;;4917863;29;20393;-68
2021/03/13 02:13:55;;;;;;;30.25;23.58;;;307.30;2073.60;;;;;;4917819;29;20039;-67
2021/03/13 02:16:52;;;;;;;34.90;26.48;;;307.20;2073.60;;;;;;4918227;29;20459;-68
2021/03/13 02:19:41;;;;;;;34.10;26.48;;;307.20;2073.60;;;;;;4885373;29;20040;-68
2021/03/13 02:22:12;;;;;;;35.08;26.63;;;282.30;2099.20;;;;;;4917727;29;20439;-67
2021/03/13 02:25:02;;;;;;;36.50;27.17;;;282.40;2099.20;;;;;;4917853;29;20135;-67
2021/03/13 02:27:40;;;;;;;31.85;24.45;;;282.50;2073.60;;;;;;4917688;29;20028;-67
2021/03/13 02:30:11;;;;;;;35.38;25.25;;;282.10;2124.80;;;;;;4916518;29;20032;-67
2021/03/13 02:33:01;;;;;;;34.30;25.73;;;282.20;2124.80;;;;;;4917626;29;20028;-67
2021/03/13 02:35:36;;;;;;;33.55;25.23;;;282.50;2099.20;;;;;;4916798;29;20052;-67
2021/03/13 02:38:07;;;;;;;30.77;24.00;;;282.50;2073.60;;;;;;4915936;29;20403;-67
2021/03/13 02:40:34;;;;;;;;;;;282.30;2099.20;;;;;;4917633;29;20043;-67
2021/03/13 02:43:03;;;;;;;32.45;23.33;;;282.30;2073.60;;;;;;4917358;29;20025;-67
2021/03/13 02:45:33;;;;;;;33.22;24.58;;;282.30;2099.20;;;;;;4917475;29;20028;-67
2021/03/13 02:48:02;;;;;;;30.88;23.08;;;282.40;2073.60;;;;;;4917431;29;20059;-67
2021/03/13 02:50:30;;;;;;;32.42;23.88;;;282.30;2073.60;;;;;;4917316;29;20175;-67
2021/03/13 02:52:56;;;;;;;30.83;23.60;;;282.20;2073.60;;;;;;4917418;29;20028;-67
2021/03/13 02:55:24;;;;;;;25.55;20.50;;;282.00;2150.40;;;;;;4917280;29;20123;-68
2021/03/13 03:44:58;;;;;;;7.20;4.82;;;256.20;2048.00;;;;;;5109944;27;20345;-67
2021/03/13 03:47:24;;;;;;;7.00;4.47;;;256.70;1971.20;;;;;;5109952;28;20032;-65
2021/03/13 03:49:51;;;;;;;6.32;4.82;;;256.50;1971.20;;;;;;5090725;28;20032;-65
2021/03/13 03:52:18;;;;;;;8.55;5.47;;;256.50;1945.60;;;;;;5096677;28;20042;-66
2021/03/13 03:54:44;;;;;;;6.57;4.35;;;256.60;1945.60;;;;;;5110028;28;20028;-66
2021/03/13 03:57:12;;;;;;;7.55;5.35;;;256.50;1945.60;;;;;;5109771;28;20381;-66
2021/03/13 03:59:42;;;;;;;5.70;4.20;;;256.60;1971.20;;;;;;5110240;28;20458;-64
2021/03/13 04:02:09;;;;;;;5.70;4.63;;;256.50;1971.20;;;;;;5109484;28;20554;-65
2021/03/13 04:04:36;;;;;;;6.93;4.20;;;256.40;1971.20;;;;;;5109654;28;20085;-67
2021/03/13 04:07:03;;;;;;;5.65;3.70;;;256.20;1996.80;;;;;;5107676;28;20030;-66
2021/03/13 04:09:31;;;;;;;5.28;3.17;;;256.00;2022.40;;;;;;5097515;28;20016;-67
2021/03/13 04:11:57;;;;;;;3.97;2.90;;;256.10;2022.40;;;;;;5109450;28;20058;-65
2021/03/13 04:14:24;;;;;;;3.33;2.65;;;256.20;2022.40;;;;;;5109968;28;20051;-65
2021/03/13 04:16:50;;;;;;;5.47;3.00;;;231.30;2048.00;;;;;;5109518;28;20031;-66
2021/03/13 04:19:16;;;;;;;5.38;4.18;;;231.30;2048.00;;;;;;5109489;28;20124;-65
2021/03/13 04:21:42;;;;;;;5.15;4.00;;;256.20;2022.40;;;;;;5109506;28;20472;-66
2021/03/13 04:24:11;;;;;;;4.28;3.28;;;256.30;2022.40;;;;;;5109307;28;20051;-67
2021/03/13 04:26:38;;;;;;;5.88;3.63;;;256.20;1996.80;;;;;;5109640;28;20024;-66
2021/03/13 04:29:03;;;;;;;5.97;3.60;;;256.20;2022.40;;;;;;5109246;28;20035;-66
2021/03/13 04:31:32;;;;;;;6.63;4.53;;;256.20;2022.40;;;;;;5109195;28;20015;-64
2021/03/13 04:34:00;;;;;;;6.60;4.22;;;231.30;2048.00;;;;;;5109065;28;20035;-66
2021/03/13 04:36:28;;;;;;;5.63;3.65;;;231.30;2022.40;;;;;;5109362;28;20394;-66
2021/03/13 04:38:56;;;;;;;4.28;3.33;;;231.20;2073.60;;;;;;5109279;28;20024;-65
2021/03/13 04:41:23;;;;;;;5.53;3.17;;;231.30;2073.60;;;;;;5105439;28;20021;-66
2021/03/13 04:43:49;;;;;;;5.80;4.00;;;231.30;2048.00;;;;;;5096373;28;20052;-67
2021/03/13 04:46:15;;;;;;;5.45;3.63;;;231.30;2048.00;;;;;;5094993;28;20054;-67
2021/03/13 04:48:41;;;;;;;3.95;3.28;;;256.00;2022.40;;;;;;5095383;28;20395;-65
2021/03/13 04:51:07;;;;;;;6.65;3.17;;;231.30;2048.00;;;;;;5095768;28;20103;-65
2021/03/13 04:53:34;;;;;;;4.07;2.70;;;256.20;1996.80;;;;;;5095220;28;20115;-65
2021/03/13 04:56:00;;;;;;;5.60;3.15;;;256.10;1971.20;;;;;;5095580;28;20020;-66
2021/03/13 04:58:28;;;;;;;7.18;4.40;;;256.00;1996.80;;;;;;5094862;28;20386;-65
2021/03/13 05:00:55;;;;;;;5.00;3.00;;;231.30;1996.80;;;;;;5094970;28;20069;-64
2021/03/13 05:03:21;;;;;;;3.05;2.50;;;256.00;1971.20;;;;;;5095217;28;20039;-66
2021/03/13 05:05:47;;;;;;;5.22;2.58;;;231.30;1945.60;;;;;;5094852;28;20024;-66
2021/03/13 05:08:13;;;;;;;4.95;3.15;;;231.20;1971.20;;;;;;5094852;28;20394;-65
2021/03/13 05:10:39;;;;;;;4.35;3.13;;;231.20;1971.20;;;;;;5094837;28;20020;-66
2021/03/13 05:13:04;;;;;;;5.03;3.22;;;231.10;1971.20;;;;;;5094960;28;20036;-66
2021/03/13 05:15:30;;;;;;;6.00;4.18;;;256.00;1945.60;;;;;;5094634;28;20097;-66
2021/03/13 05:17:56;;;;;;;6.95;4.72;;;256.30;1920.00;;;;;;5094877;28;20121;-66
2021/03/13 05:20:22;;;;;;;12.45;5.65;;;256.50;1920.00;;;;;;5094504;28;20035;-68
2021/03/13 05:22:48;;;;;;;13.48;9.23;;;256.50;1894.40;;;;;;5094665;28;20063;-68
2021/03/13 05:25:14;;;;;;;41.00;28.58;;;256.50;1920.00;;;;;;5094455;28;20107;-66
2021/03/13 05:27:40;;;;;;;38.38;24.58;;;256.70;1920.00;;;;;;5094646;28;20024;-66
2021/03/13 05:30:08;;;;;;;37.63;25.85;;;256.90;1920.00;;;;;;5094583;28;20102;-66
2021/03/13 05:32:34;;;;;;;64.80;41.83;;;256.90;1894.40;;;;;;5094202;28;20434;-66
2021/03/13 05:35:00;;;;;;;55.05;35.47;;;281.60;1920.00;;;;;;5094337;28;20024;-66
2021/03/13 05:37:27;;;;;;;34.55;25.05;;;281.70;1920.00;;;;;;5094488;28;20031;-65
2021/03/13 05:39:53;;;;;;;49.10;40.50;;;281.70;1920.00;;;;;;5094330;28;20023;-65
2021/03/13 05:42:20;;;;;;;39.97;28.85;;;281.70;1920.00;;;;;;5082977;28;20036;-66
2021/03/13 05:44:46;;;;;;;40.47;29.63;;;281.70;1920.00;;;;;;5091311;28;20122;-66
2021/03/13 05:47:13;;;;;;;42.83;30.65;;;281.70;1920.00;;;;;;5094529;28;20420;-66
2021/03/13 05:49:42;;;;;;;42.03;27.55;;;281.80;1920.00;;;;;;5094120;28;20032;-65
2021/03/13 05:52:08;;;;;;;53.20;34.72;;;281.90;1894.40;;;;;;5093907;28;20027;-65
2021/03/13 05:54:34;;;;;;;60.45;37.13;;;281.80;1894.40;;;;;;5093982;28;20032;-65
2021/03/13 05:57:01;;;;;;;55.83;37.55;;;281.90;1868.80;;;;;;5092983;28;20020;-66
2021/03/13 05:59:27;;;;;;;48.00;33.15;;;281.90;1894.40;;;;;;5094180;28;20028;-67
2021/03/13 06:01:53;;;;;;;42.45;28.15;;;282.10;1868.80;;;;;;5093970;28;20026;-66
2021/03/13 06:04:19;;;;;;;35.50;23.33;;;282.10;1843.20;;;;;;5094154;28;20107;-67
2021/03/13 06:06:48;;;;;;;43.22;23.77;;;281.90;1894.40;;;;;;5093719;28;20503;-67
2021/03/13 06:09:13;;;;;;;53.88;31.42;;;281.80;1894.40;;;;;;5093939;28;20019;-66
2021/03/13 06:11:39;;;;;;;54.45;33.83;;;281.90;1894.40;;;;;;5093721;28;20024;-66
2021/03/13 06:14:05;;;;;;;48.08;31.90;;;281.80;1894.40;;;;;;5093649;28;20083;-66
2021/03/13 06:16:32;;;;;;;46.20;30.30;;;281.70;1894.40;;;;;;5093737;28;20055;-66
2021/03/13 06:18:58;;;;;;;50.88;33.22;;;281.60;1920.00;;;;;;5091841;28;20036;-66
2021/03/13 06:21:36;;;;;;;48.10;34.47;;;281.70;1894.40;;;;;;5092291;28;20024;-66
2021/03/13 06:24:12;;;;;;;36.60;25.17;;;256.90;1894.40;;;;;;5093462;28;20093;-66
2021/03/13 06:26:59;;;;;;;30.05;20.80;;;256.80;1920.00;;;;;;5093633;28;20012;-66
2021/03/13 06:29:25;;;;;;;32.45;19.08;;;256.90;1920.00;;;;;;5067196;28;20471;-70
2021/03/13 06:32:08;;;;;;;34.15;22.60;;;256.90;1920.00;;;;;;5093542;28;20012;-71
2021/03/13 06:34:34;;;;;;;34.22;22.15;;;256.90;1945.60;;;;;;5067757;28;20495;-67
2021/03/13 06:37:28;;;;;;;48.92;30.83;;;281.70;1945.60;;;;;;5093419;28;20024;-67
2021/03/13 06:39:56;;;;;;;52.28;34.72;;;256.90;1894.40;;;;;;5071653;28;20026;-67
2021/03/13 06:42:26;;;;;;;47.75;31.77;;;256.90;1920.00;;;;;;5081601;28;20082;-67
2021/03/13 06:45:00;;;;;;;46.30;33.22;;;281.60;1945.60;;;;;;5091372;28;20245;-67
2021/03/13 06:47:36;;;;;;;41.33;29.05;;;281.80;1920.00;;;;;;5093318;28;20475;-66
2021/03/13 06:50:20;;;;;;;39.05;26.40;;;281.90;1894.40;;;;;;5093012;28;20051;-68
2021/03/13 06:52:55;;;;;;;38.88;27.17;;;281.60;1920.00;;;;;;5092956;28;20032;-68
2021/03/13 06:55:25;;;;;;;28.63;20.23;;;256.90;1945.60;;;;;;5057823;28;20058;-68
2021/03/13 06:57:52;;;;;;;28.17;18.10;;;256.90;1920.00;;;;;;5086138;28;20027;-69
2021/03/13 07:00:33;;;;;;;28.65;21.95;;;281.60;1945.60;;;;;;5092965;28;20030;-69
2021/03/13 07:03:07;;;;;;;37.35;24.65;;;281.80;1920.00;;;;;;5092797;28;20030;-69
2021/03/13 07:05:33;;;;;;;34.60;22.90;;;281.90;1920.00;;;;;;5065676;28;20032;-69
2021/03/13 07:07:59;;;;;;;29.75;21.25;;;281.90;1920.00;;;;;;5092757;28;20024;-69
2021/03/13 07:10:27;;;;;;;30.42;20.88;;;282.00;1894.40;;;;;;5092779;28;20020;-69
2021/03/13 07:12:53;;;;;;;29.10;18.75;;;281.90;1894.40;;;;;;5092798;28;20360;-69
2021/03/13 07:15:26;;;;;;;18.25;14.30;;;281.80;1920.00;;;;;;5092595;28;20111;-69
2021/03/13 07:17:59;;;;;;;36.05;21.73;;;281.70;1920.00;;;;;;5093027;28;20026;-70
2021/03/13 07:20:30;;;;;;;21.48;13.02;;;281.90;1868.80;;;;;;5092371;28;20482;-68
2021/03/13 07:22:58;;;;;;;21.97;14.37;;;281.80;1843.20;;;;;;5092675;28;20077;-68
2021/03/13 07:25:26;;;;;;;18.50;12.93;;;281.90;1843.20;;;;;;5092365;28;20527;-68
2021/03/13 07:28:06;;;;;;;17.88;13.02;;;281.90;1843.20;;;;;;5092615;28;20086;-69
2021/03/13 07:30:35;;;;;;;28.02;18.25;;;282.10;1817.60;;;;;;5092711;28;20126;-70
2021/03/13 07:33:11;;;;;;;17.40;12.90;;;307.20;1792.00;;;;;;5092451;28;20428;-69
2021/03/13 07:35:39;;;;;;;15.93;11.60;;;307.30;1766.40;;;;;;5092553;28;20028;-67
2021/03/13 07:38:10;;;;;;;11.82;8.10;;;307.70;1740.80;;;;;;5092546;28;20024;-67
2021/03/13 07:40:42;;;;;;;12.27;8.52;;;307.90;1689.60;;;;;;5092020;28;20020;-69
2021/03/13 07:43:13;;;;;;;16.42;11.52;;;332.80;1715.20;;;;;;5077819;28;20086;-69
2021/03/13 07:45:39;;;;;;;35.07;22.20;;;333.00;1689.60;;;;;;5091189;28;20473;-65
2021/03/13 07:48:10;;;;;;;47.58;31.95;;;332.80;1766.40;;;;;;5092121;28;21166;-68
2021/03/13 07:50:36;;;;;;;43.70;30.63;;;332.90;1792.00;;;;;;5092273;28;20500;-68
2021/03/13 07:53:03;;;;;;;40.38;28.23;;;332.90;1817.60;;;;;;5092057;28;20061;-68
2021/03/13 07:55:29;;;;;;;26.00;20.05;;;333.10;1792.00;;;;;;5092185;28;20027;-66
2021/03/13 07:57:56;;;;;;;30.83;22.90;;;333.20;1766.40;;;;;;5092397;28;20115;-67
2021/03/13 08:00:50;;;;;;;43.15;27.98;;;333.20;1766.40;;;;;;5091949;28;20016;-66
2021/03/13 08:03:29;;;;;;;50.03;35.55;;;333.30;1715.20;;;;;;5091926;28;20099;-67
2021/03/13 08:06:02;;;;;;;44.60;31.95;;;333.40;1715.20;;;;;;5091759;28;20051;-67
2021/03/13 08:08:35;;;;;;;48.05;32.85;;;333.60;1740.80;;;;;;5091855;28;20021;-67
2021/03/13 08:11:01;;;;;;;50.75;32.13;;;333.70;1664.00;;;;;;5091900;28;20063;-67
2021/03/13 08:13:27;;;;;;;34.58;25.13;;;358.40;1664.00;;;;;;5090144;28;20159;-67
2021/03/13 08:16:11;;;;;;;34.20;24.40;;;358.50;1638.40;;;;;;5091883;28;20024;-66
2021/03/13 08:18:43;;;;;;;31.38;21.88;;;358.60;1612.80;;;;;;5091604;28;20028;-65
2021/03/13 08:21:35;;;;;;;27.90;21.52;;;358.60;1612.80;;;;;;5095266;28;20016;-65
2021/03/13 08:24:02;;;;;;;33.38;23.73;;;358.80;1612.80;;;;;;5092132;28;20091;-65
2021/03/13 08:26:34;;;;;;;30.23;23.08;;;358.90;1612.80;;;;;;5095591;28;20026;-67
2021/03/13 08:28:59;;;;;;;;;;;359.10;1587.20;;;;;;5095904;28;20012;-66
2021/03/13 08:31:25;;;;;;;25.10;18.92;;;359.20;1587.20;;;;;;5093916;28;19904;-68
2021/03/13 08:33:53;;;;;;;28.80;22.33;;;359.20;1561.60;;;;;;5095469;28;20035;-69
2021/03/13 08:36:30;;;;;;;30.50;22.35;;;359.20;1587.20;;;;;;5095420;28;20028;-68
2021/03/13 08:39:10;;;;;;;26.80;18.08;;;384.00;1561.60;;;;;;5095285;28;20032;-64
2021/03/13 08:41:42;;;;;;;24.20;18.17;;;384.20;1510.40;;;;;;5089580;28;20016;-68
2021/03/13 08:44:26;;;;;;;30.17;20.90;;;384.30;1484.80;;;;;;5087358;28;20044;-65
2021/03/13 08:47:09;;;;;;;28.88;19.17;;;384.30;1484.80;;;;;;5068580;28;20035;-67
2021/03/13 08:49:36;;;;;;;25.90;17.98;;;384.60;1510.40;;;;;;5095071;28;20059;-68
2021/03/13 08:52:07;;;;;;;27.02;18.33;;;384.70;1459.20;;;;;;5095108;28;20482;-66
2021/03/13 08:54:39;;;;;;;41.88;30.27;;;384.90;1484.80;;;;;;5093748;28;20070;-66
2021/03/13 08:57:37;;;;;;;30.10;21.83;;;409.60;1484.80;;;;;;5068597;28;20101;-67
2021/03/13 09:00:06;;;;;;;21.00;15.77;;;409.80;1433.60;;;;;;5094895;28;20414;-66
2021/03/13 09:02:36;;;;;;;21.23;16.40;;;410.10;1382.40;;;;;;5094829;28;20479;-67
2021/03/13 09:05:22;;;;;;;16.13;12.40;;;410.10;1433.60;;;;;;5095061;28;20066;-67
2021/03/13 09:07:50;;;;;;;28.15;19.52;;;410.40;1408.00;;;;;;5095050;28;20446;-67
2021/03/13 09:10:16;;;;;;;24.25;18.02;;;410.50;1408.00;;;;;;5094671;28;20481;-66
2021/03/13 09:12:44;;;;;;;24.40;18.33;;;435.50;1356.80;;;;;;5094918;28;20040;-67
2021/03/13 09:15:11;;;;;;;19.83;14.93;;;435.80;1331.20;;;;;;5094414;28;20085;-67
2021/03/13 09:17:37;;;;;;;20.67;16.23;;;435.80;1280.00;;;;;;5094694;28;20379;-67
2021/03/13 09:20:13;;;;;;;23.73;16.60;;;436.10;1280.00;;;;;;5094761;28;20035;-67
2021/03/13 09:22:42;;;;;;;24.30;15.80;;;460.90;1254.40;;;;;;5094630;28;20020;-67
2021/03/13 09:25:20;;;;;;;18.30;14.13;;;461.10;1280.00;;;;;;5092602;28;20169;-67
2021/03/13 09:27:50;;;;;;;20.00;15.43;;;461.40;1228.80;;;;;;5094209;28;20139;-67
2021/03/13 09:30:18;;;;;;;15.93;13.23;;;461.40;1203.20;;;;;;5094256;28;20482;-68
2021/03/13 09:32:46;;;;;;;25.80;17.00;;;461.50;1203.20;;;;;;5066672;28;20027;-68
2021/03/13 09:35:13;;;;;;;19.25;13.45;;;487.20;1126.40;;;;;;5093128;28;20035;-69
2021/03/13 09:37:41;;;;;;;19.70;14.48;;;615.00;844.80;;;;;;5093973;28;20462;-67
2021/03/13 09:40:11;;;;;;;20.60;16.08;;;692.10;691.20;;;;;;5094140;28;20038;-73
2021/03/13 09:42:38;;;;;;;17.63;14.30;;;743.10;614.40;;;;;;5079581;28;20548;-71
2021/03/13 09:45:14;;;;;;;16.75;12.60;;;793.70;563.20;;;;;;5094585;28;20051;-64
2021/03/13 09:47:54;;;;;;;34.03;24.98;;;793.70;563.20;;;;;;5094207;28;20024;-65
2021/03/13 09:50:32;;;;;;;17.40;15.63;;;820.10;512.00;;;;;;5068320;28;20020;-65
2021/03/13 09:53:00;;;;;;;19.30;16.40;;;896.30;460.80;;;;;;5093574;28;20035;-66
2021/03/13 09:55:28;;;;;;;18.00;14.55;;;896.90;409.60;;;;;;5093838;28;20489;-65
2021/03/13 09:57:55;;;;;;;17.02;15.32;;;;;;;;;;5093808;28;20107;-66
2021/03/13 10:00:26;;;;;;;15.35;13.73;;;947.80;384.00;;;;;;5093536;28;20020;-67
2021/03/13 10:02:52;;;;;;;;;;;972.90;384.00;;;;;;5092483;28;20448;-69
2021/03/13 10:05:22;;;;;;;15.00;13.15;;;973.20;358.40;;;;;;5093687;28;19904;-77
2021/03/13 10:07:51;;;;;;;11.32;9.68;;;973.10;358.40;;;;;;5093890;28;20028;-77
2021/03/13 10:10:19;;;;;;;15.10;11.55;;;972.80;384.00;;;;;;5093685;28;20032;-76
2021/03/13 10:13:04;;;;;;;11.52;10.32;;;998.60;358.40;;;;;;5093707;28;20413;-75
2021/03/13 10:15:33;;;;;;;23.50;19.23;;;973.70;332.80;;;;;;5093390;28;20115;-74
2021/03/13 10:18:07;;;;;;;13.77;11.85;;;998.90;332.80;;;;;;5093995;28;20409;-74
2021/03/13 10:20:42;;;;;;;10.95;9.77;;;999.20;332.80;;;;;;5074802;28;20016;-75
2021/03/13 10:23:14;;;;;;;11.73;10.57;;;1024.70;332.80;;;;;;5084844;28;20104;-75
2021/03/13 10:25:53;;;;;;;10.18;9.18;;;1024.50;332.80;;;;;;5093419;28;20073;-74
2021/03/13 10:28:19;;;;;;;11.73;9.98;;;1024.50;332.80;;;;;;5093372;28;20016;-74
2021/03/13 10:30:46;;;;;;;13.07;10.73;;;1024.70;332.80;;;;;;5088987;28;20565;-73
2021/03/13 10:33:12;;;;;;;10.70;9.63;;;1024.40;332.80;;;;;;5083620;28;20119;-74
2021/03/13 10:35:38;;;;;;;13.50;10.23;;;998.60;332.80;;;;;;5092869;28;20028;-72
2021/03/13 10:38:10;;;;;;;16.75;10.27;;;1024.50;332.80;;;;;;5093129;28;20020;-75
2021/03/13 10:40:45;;;;;;;10.07;8.95;;;1024.70;332.80;;;;;;5092847;28;20028;-74
2021/03/13 10:43:31;;;;;;;11.32;9.80;;;1024.40;332.80;;;;;;5076713;28;20036;-75
2021/03/13 10:45:56;;;;;;;11.00;9.90;;;1049.70;358.40;;;;;;5093124;28;20024;-74
2021/03/13 10:48:46;;;;;;;13.75;12.32;;;1024.70;332.80;;;;;;5087707;28;20478;-75
2021/03/13 10:51:32;;;;;;;10.17;9.17;;;1024.60;332.80;;;;;;5081336;28;20040;-74
2021/03/13 10:54:00;;;;;;;10.77;9.77;;;1049.90;358.40;;;;;;5092778;28;20046;-74
2021/03/13 10:56:42;;;;;;;11.48;10.27;;;1050.50;358.40;;;;;;5092723;28;20038;-74
2021/03/13 10:59:09;;;;;;;13.90;10.60;;;1050.20;358.40;;;;;;5093196;28;20118;-73
2021/03/13 11:01:35;;;;;;;21.42;13.77;;;1075.40;358.40;;;;;;5092994;28;20020;-74
2021/03/13 11:04:01;;;;;;;12.85;11.00;;;1075.30;358.40;;;;;;5092761;28;20555;-74
2021/03/13 11:06:32;;;;;;;15.75;12.18;;;1050.20;358.40;;;;;;5078348;28;20020;-74
2021/03/13 11:09:00;;;;;;;12.63;10.07;;;948.00;358.40;;;;;;5072535;28;20073;-73
2021/03/13 11:11:28;;;;;;;16.63;10.20;;;896.70;384.00;;;;;;5085686;28;20107;-74
2021/03/13 11:13:54;;;;;;;14.40;10.85;;;870.50;435.20;;;;;;5092502;28;20431;-74
2021/03/13 11:16:23;;;;;;;27.25;13.20;;;;;;;;;;5081278;28;20021;-74
2021/03/13 11:18:50;;;;;;;26.90;16.85;;;;;;;;;;5072230;28;20533;-74
2021/03/13 11:21:17;;;;;;;20.98;12.68;;;742.70;563.20;;;;;;5070893;28;20035;-74
2021/03/13 11:23:42;;;;;;;21.05;11.82;;;717.20;614.40;;;;;;5072286;28;20037;-74
2021/03/13 11:26:11;;;;;;;29.23;20.92;;;691.70;640.00;;;;;;5072372;28;20028;-73
2021/03/13 11:28:37;;;;;;;49.03;33.40;;;;;;;;;;5072262;28;20028;-74
2021/03/13 11:31:03;;;;;;;30.08;21.48;;;768.90;512.00;;;;;;5072456;28;20107;-74
2021/03/13 11:33:29;;;;;;;16.67;11.75;;;845.00;512.00;;;;;;5072362;28;20032;-74
2021/03/13 11:35:55;;;;;;;19.50;13.45;;;896.30;384.00;;;;;;5072077;28;20070;-75
2021/03/13 11:38:20;;;;;;;16.23;9.95;;;922.10;384.00;;;;;;5072424;28;20020;-74
2021/03/13 11:40:46;;;;;;;12.23;8.25;;;871.10;409.60;;;;;;5088815;28;20428;-74
2021/03/13 11:43:12;;;;;;;38.63;26.98;;;819.50;460.80;;;;;;5077836;28;20082;-74
2021/03/13 11:45:38;;;;;;;14.23;11.88;;;;;;;;;;5092545;28;20020;-73
2021/03/13 11:48:04;;;;;;;15.77;10.38;;;845.10;486.40;;;;;;5092333;28;20063;-74
2021/03/13 11:50:30;;;;;;;13.45;9.90;;;871.20;409.60;;;;;;5092193;28;20420;-74
2021/03/13 11:52:57;;;;;;;17.25;12.07;;;896.60;409.60;;;;;;5092232;28;20455;-73
2021/03/13 11:55:25;;;;;;;15.95;12.10;;;921.60;409.60;;;;;;5094827;28;20054;-74
2021/03/13 11:57:51;;;;;;;15.30;11.70;;;922.50;358.40;;;;;;5095010;28;20544;-76
2021/03/13 12:00:18;;;;;;;14.55;10.52;;;922.10;409.60;;;;;;5096133;28;20023;-73
2021/03/13 12:02:43;;;;;;;11.75;9.93;;;845.70;460.80;;;;;;5096132;28;20039;-74
2021/03/13 12:05:10;;;;;;;12.63;10.05;;;845.70;460.80;;;;;;5096014;28;20546;-73
2021/03/13 12:07:37;;;;;;;17.52;11.18;;;844.80;486.40;;;;;;5096325;28;20028;-73
2021/03/13 12:10:04;;;;;;;22.95;13.40;;;845.40;486.40;;;;;;5096228;28;20051;-74
2021/03/13 12:12:30;;;;;;;15.90;11.25;;;870.70;460.80;;;;;;5096266;28;20400;-73
2021/03/13 12:14:56;;;;;;;15.35;10.88;;;896.10;409.60;;;;;;5096096;28;20039;-74
2021/03/13 12:17:22;;;;;;;11.70;9.25;;;896.00;435.20;;;;;;5096072;28;20386;-74
2021/03/13 12:19:47;;;;;;;10.70;9.60;;;896.70;384.00;;;;;;5095901;28;20034;-73
2021/03/13 12:22:16;;;;;;;15.75;12.45;;;896.80;358.40;;;;;;5095556;28;20027;-70
2021/03/13 12:24:42;;;;;;;12.85;11.45;;;896.00;384.00;;;;;;5095838;28;20043;-73
2021/03/13 12:27:09;;;;;;;15.80;10.15;;;870.70;435.20;;;;;;5095704;28;20141;-74
2021/03/13 12:29:36;;;;;;;12.73;8.65;;;845.40;460.80;;;;;;5095742;28;20077;-72
2021/03/13 12:32:02;;;;;;;14.93;11.23;;;845.10;460.80;;;;;;5095699;28;20474;-73
2021/03/13 12:34:28;;;;;;;16.42;11.43;;;820.10;460.80;;;;;;5095663;28;20107;-73
2021/03/13 12:36:53;;;;;;;17.33;12.05;;;819.40;486.40;;;;;;5095489;28;20078;-73
2021/03/13 12:39:19;;;;;;;16.70;12.45;;;793.70;563.20;;;;;;5095479;28;20058;-73
2021/03/13 12:41:46;;;;;;;11.40;8.95;;;768.80;512.00;;;;;;5088810;28;20028;-72
2021/03/13 12:44:13;;;;;;;11.68;9.30;;;768.70;537.60;;;;;;5087804;28;20062;-74
2021/03/13 12:46:39;;;;;;;14.13;9.55;;;768.60;512.00;;;;;;5095231;28;20378;-71
2021/03/13 12:49:05;;;;;;;10.23;7.93;;;768.50;512.00;;;;;;5095260;28;20028;-74
2021/03/13 12:51:31;;;;;;;26.52;20.80;;;743.20;563.20;;;;;;5094948;28;20093;-73
2021/03/13 12:53:59;;;;;;;24.00;14.40;;;742.70;588.80;;;;;;5095183;28;20482;-74
2021/03/13 12:56:25;;;;;;;16.33;9.30;;;742.40;640.00;;;;;;5094973;28;20020;-74
2021/03/13 12:58:50;;;;;;;25.48;11.05;;;717.70;614.40;;;;;;5095184;28;20040;-73
2021/03/13 13:01:16;;;;;;;16.88;10.75;;;717.50;588.80;;;;;;5095333;28;20382;-73
2021/03/13 13:03:42;;;;;;;11.05;8.63;;;692.10;588.80;;;;;;5094927;28;20032;-74